createdAt,value
2023-04-17T00:00:31.612Z,38.63
2023-04-17T00:02:58.301Z,38.10
2023-04-17T00:05:26.565Z,38.60
2023-04-17T00:07:54.263Z,38.33
2023-04-17T00:10:21.065Z,38.55
2023-04-17T00:12:47.710Z,38.17
2023-04-17T00:15:14.299Z,38.33
2023-04-17T00:17:40.921Z,38.67
2023-04-17T00:20:10.563Z,36.33
2023-04-17T00:22:37.840Z,36.20
2023-04-17T00:25:04.780Z,35.42
2023-04-17T00:27:31.397Z,36.55
2023-04-17T00:29:58.034Z,34.35
2023-04-17T00:32:24.680Z,35.20
2023-04-17T00:34:52.228Z,34.65
2023-04-17T00:37:20.439Z,33.42
2023-04-17T00:39:47.034Z,32.45
2023-04-17T00:42:13.634Z,34.65
2023-04-17T00:44:40.260Z,32.17
2023-04-17T00:47:06.884Z,32.10
2023-04-17T00:49:33.492Z,33.28
2023-04-17T00:52:00.122Z,32.42
2023-04-17T00:54:26.733Z,33.25
2023-04-17T00:56:53.346Z,32.05
2023-04-17T00:59:19.997Z,31.02
2023-04-17T01:01:46.738Z,30.80
2023-04-17T01:04:13.529Z,32.63
2023-04-17T01:06:40.562Z,31.38
2023-04-17T01:09:07.646Z,32.05
2023-04-17T01:11:34.335Z,31.98
2023-04-17T01:14:00.928Z,32.75
2023-04-17T01:16:30.229Z,31.98
2023-04-17T01:18:56.865Z,31.98
2023-04-17T01:21:23.458Z,30.80
2023-04-17T01:23:52.928Z,32.30
2023-04-17T01:26:21.043Z,33.25
2023-04-17T01:28:54.661Z,31.58
2023-04-17T01:31:21.525Z,30.95
2023-04-17T01:33:48.783Z,30.88
2023-04-17T01:36:15.726Z,30.13
2023-04-17T01:38:42.470Z,30.88
2023-04-17T01:41:12.100Z,31.17
2023-04-17T01:43:39.805Z,31.63
2023-04-17T01:46:06.620Z,30.63
2023-04-17T01:48:33.738Z,31.70
2023-04-17T01:51:00.601Z,30.73
2023-04-17T01:53:27.452Z,32.22
2023-04-17T01:55:54.402Z,30.75
2023-04-17T01:58:21.269Z,30.67
2023-04-17T02:00:48.443Z,30.55
2023-04-17T02:03:15.513Z,31.42
2023-04-17T02:05:44.885Z,30.95
2023-04-17T02:08:11.497Z,31.95
2023-04-17T02:10:38.104Z,30.08
2023-04-17T02:13:04.730Z,29.52
2023-04-17T02:15:31.335Z,33.13
2023-04-17T02:17:58.005Z,31.38
2023-04-17T02:20:24.726Z,31.48
2023-04-17T02:22:51.371Z,32.13
2023-04-17T02:25:18.091Z,32.53
2023-04-17T02:27:44.710Z,30.83
2023-04-17T02:30:11.802Z,29.83
2023-04-17T02:32:38.478Z,30.15
2023-04-17T02:35:06.105Z,32.30
2023-04-17T02:37:32.739Z,32.10
2023-04-17T02:39:59.348Z,30.58
2023-04-17T02:42:25.958Z,30.45
2023-04-17T02:44:53.856Z,31.65
2023-04-17T02:47:20.580Z,31.65
2023-04-17T02:49:47.204Z,31.30
2023-04-17T02:52:13.831Z,31.70
2023-04-17T02:54:40.458Z,33.28
2023-04-17T02:57:07.072Z,32.85
2023-04-17T02:59:33.708Z,32.80
2023-04-17T03:02:00.502Z,33.55
2023-04-17T03:04:29.775Z,32.92
2023-04-17T03:06:56.382Z,32.95
2023-04-17T03:09:23.716Z,32.88
2023-04-17T03:11:50.423Z,32.97
2023-04-17T03:14:17.039Z,33.72
2023-04-17T03:16:43.739Z,34.20
2023-04-17T03:19:10.539Z,34.83
2023-04-17T03:21:37.674Z,34.95
2023-04-17T03:24:04.536Z,34.88
2023-04-17T03:26:31.128Z,35.53
2023-04-17T03:28:57.739Z,36.30
2023-04-17T03:31:25.705Z,38.28
2023-04-17T03:33:52.392Z,40.67
2023-04-17T03:36:18.999Z,40.65
2023-04-17T03:38:45.701Z,43.17
2023-04-17T03:41:12.321Z,41.40
2023-04-17T03:43:38.929Z,44.42
2023-04-17T03:46:05.662Z,43.97
2023-04-17T03:48:32.312Z,42.83
2023-04-17T03:50:58.929Z,43.53
2023-04-17T03:53:25.603Z,45.28
2023-04-17T03:55:52.197Z,44.00
2023-04-17T03:58:18.947Z,43.15
2023-04-17T04:00:46.665Z,44.08
2023-04-17T04:03:13.502Z,41.75
2023-04-17T04:05:40.434Z,42.67
2023-04-17T04:08:07.055Z,44.33
2023-04-17T04:10:33.665Z,44.20
2023-04-17T04:13:00.279Z,44.65
2023-04-17T04:15:26.890Z,43.10
2023-04-17T04:17:53.584Z,43.53
2023-04-17T04:20:22.213Z,43.08
2023-04-17T04:22:48.891Z,42.80
2023-04-17T04:25:15.990Z,42.03
2023-04-17T04:27:49.438Z,40.75
2023-04-17T04:30:16.891Z,42.23
2023-04-17T04:32:45.588Z,42.42
2023-04-17T04:35:12.999Z,39.05
2023-04-17T04:37:42.817Z,39.15
2023-04-17T04:40:14.659Z,37.78
2023-04-17T04:42:49.864Z,38.60
2023-04-17T04:45:16.625Z,37.78
2023-04-17T04:47:43.371Z,37.60
2023-04-17T04:50:10.451Z,37.20
2023-04-17T04:52:37.089Z,36.70
2023-04-17T04:55:03.896Z,37.05
2023-04-17T04:57:30.563Z,35.60
2023-04-17T04:59:57.257Z,36.10
2023-04-17T05:02:23.969Z,35.72
2023-04-17T05:04:52.133Z,35.67
2023-04-17T05:07:18.850Z,34.58
2023-04-17T05:09:45.633Z,35.90
2023-04-17T05:12:12.307Z,32.38
2023-04-17T05:14:39.329Z,33.33
2023-04-17T05:17:06.437Z,31.90
2023-04-17T05:19:33.078Z,31.85
2023-04-17T05:21:59.669Z,32.00
2023-04-17T05:24:26.264Z,30.83
2023-04-17T05:26:53.552Z,31.10
2023-04-17T05:29:20.594Z,29.35
2023-04-17T05:31:47.235Z,27.63
2023-04-17T05:34:14.175Z,26.27
2023-04-17T05:36:41.007Z,25.38
2023-04-17T05:39:07.839Z,24.63
2023-04-17T05:41:34.443Z,25.08
2023-04-17T05:44:01.065Z,25.50
2023-04-17T05:46:27.703Z,25.50
2023-04-17T05:48:54.368Z,23.75
2023-04-17T05:51:21.524Z,23.98
2023-04-17T05:53:48.715Z,24.20
2023-04-17T05:56:15.345Z,24.45
2023-04-17T05:58:42.048Z,25.85
2023-04-17T06:01:08.637Z,25.98
2023-04-17T06:03:35.419Z,24.20
2023-04-17T06:06:02.390Z,25.55
2023-04-17T06:08:29.187Z,24.42
2023-04-17T06:10:56.240Z,24.45
2023-04-17T06:13:24.369Z,24.30
2023-04-17T06:15:51.485Z,24.58
2023-04-17T06:18:18.205Z,25.80
2023-04-17T06:20:45.549Z,26.50
2023-04-17T06:23:12.256Z,25.23
2023-04-17T06:25:38.890Z,23.92
2023-04-17T06:28:05.630Z,25.48
2023-04-17T06:30:32.231Z,24.92
2023-04-17T06:32:58.888Z,25.33
2023-04-17T06:35:25.560Z,24.33
2023-04-17T06:37:52.194Z,24.92
2023-04-17T06:40:18.871Z,24.65
2023-04-17T06:42:45.659Z,24.10
2023-04-17T06:45:12.443Z,22.75
2023-04-17T06:47:39.091Z,22.67
2023-04-17T06:50:07.464Z,25.75
2023-04-17T06:52:34.082Z,25.13
2023-04-17T06:55:02.222Z,25.15
2023-04-17T06:57:29.119Z,25.13
2023-04-17T06:59:55.733Z,22.45
2023-04-17T07:02:22.437Z,22.20
2023-04-17T07:04:49.370Z,25.83
2023-04-17T07:07:16.270Z,22.83
2023-04-17T07:09:44.049Z,24.02
2023-04-17T07:12:10.849Z,22.70
2023-04-17T07:14:38.291Z,23.35
2023-04-17T07:17:04.920Z,21.48
2023-04-17T07:19:32.307Z,21.98
2023-04-17T07:21:58.968Z,21.90
2023-04-17T07:24:25.661Z,21.17
2023-04-17T07:26:52.292Z,23.45
2023-04-17T07:29:18.966Z,18.50
2023-04-17T07:31:45.772Z,17.98
2023-04-17T07:34:12.649Z,19.08
2023-04-17T07:36:39.412Z,17.85
2023-04-17T07:39:07.224Z,16.15
2023-04-17T07:41:33.829Z,15.20
2023-04-17T07:44:03.580Z,14.95
2023-04-17T07:46:30.416Z,15.45
2023-04-17T07:48:57.093Z,13.70
2023-04-17T07:51:23.691Z,14.40
2023-04-17T07:53:50.431Z,14.55
2023-04-17T07:56:17.570Z,12.68
2023-04-17T07:58:45.107Z,12.45
2023-04-17T08:01:11.781Z,12.43
2023-04-17T08:03:41.509Z,13.15
2023-04-17T08:06:08.518Z,23.02
2023-04-17T08:08:35.371Z,50.97
2023-04-17T08:11:02.042Z,17.20
2023-04-17T08:13:31.395Z,13.43
2023-04-17T08:15:59.526Z,13.10
2023-04-17T08:18:26.163Z,13.40
2023-04-17T08:20:52.924Z,12.63
2023-04-17T08:23:19.606Z,13.25
2023-04-17T08:25:46.282Z,12.30
2023-04-17T08:28:13.005Z,13.02
2023-04-17T08:30:39.682Z,12.82
2023-04-17T08:33:06.384Z,13.20
2023-04-17T08:35:32.994Z,12.77
2023-04-17T08:38:00.151Z,13.15
2023-04-17T08:40:26.942Z,13.48
2023-04-17T08:42:54.172Z,13.55
2023-04-17T08:45:20.980Z,13.45
2023-04-17T08:47:47.707Z,13.60
2023-04-17T08:50:16.425Z,13.90
2023-04-17T08:52:44.296Z,11.70
2023-04-17T08:55:11.699Z,11.02
2023-04-17T08:58:09.048Z,11.85
2023-04-17T09:00:42.852Z,11.50
2023-04-17T09:03:11.446Z,10.68
2023-04-17T09:05:41.651Z,13.48
2023-04-17T09:08:17.321Z,12.20
2023-04-17T09:10:48.110Z,13.70
2023-04-17T09:13:16.473Z,17.05
2023-04-17T09:15:44.023Z,10.88
2023-04-17T09:18:31.430Z,9.98
2023-04-17T09:21:01.256Z,10.65
2023-04-17T09:23:29.641Z,10.88
2023-04-17T09:26:09.912Z,10.10
2023-04-17T09:28:39.281Z,12.48
2023-04-17T09:31:18.423Z,12.20
2023-04-17T09:34:02.037Z,9.88
2023-04-17T09:36:32.498Z,9.98
2023-04-17T09:39:00.856Z,12.48
2023-04-17T09:41:28.920Z,10.93
2023-04-17T09:44:05.442Z,9.45
2023-04-17T09:46:38.291Z,10.50
2023-04-17T09:49:14.437Z,10.38
2023-04-17T09:51:41.563Z,10.55
2023-04-17T09:54:10.069Z,9.70
2023-04-17T09:56:37.866Z,9.25
2023-04-17T09:59:05.434Z,8.57
2023-04-17T10:01:33.777Z,9.40
2023-04-17T10:04:01.472Z,10.63
2023-04-17T10:06:29.021Z,9.52
2023-04-17T10:08:55.970Z,9.90
2023-04-17T10:11:24.140Z,8.88
2023-04-17T10:14:06.219Z,9.35
2023-04-17T10:16:39.641Z,8.38
2023-04-17T10:19:30.368Z,9.87
2023-04-17T10:22:16.084Z,8.73
2023-04-17T10:24:43.122Z,9.80
2023-04-17T10:27:25.618Z,7.97
2023-04-17T10:29:59.208Z,9.45
2023-04-17T10:32:28.347Z,8.57
2023-04-17T10:34:58.886Z,8.18
2023-04-17T10:37:47.875Z,8.38
2023-04-17T10:40:20.949Z,8.95
2023-04-17T10:43:01.736Z,9.15
2023-04-17T10:45:54.436Z,7.50
2023-04-17T10:48:38.079Z,7.88
2023-04-17T10:51:29.137Z,8.63
2023-04-17T10:53:56.788Z,7.80
2023-04-17T10:56:38.342Z,8.00
2023-04-17T10:59:12.424Z,7.45
2023-04-17T11:04:11.347Z,6.60
2023-04-17T11:06:41.976Z,7.72
2023-04-17T11:09:09.318Z,7.43
2023-04-17T11:11:44.284Z,7.38
2023-04-17T11:14:16.404Z,8.00
2023-04-17T11:16:44.202Z,7.20
2023-04-17T11:19:13.012Z,7.25
2023-04-17T11:21:41.950Z,7.63
2023-04-17T11:24:08.579Z,6.75
2023-04-17T11:26:44.749Z,6.70
2023-04-17T11:29:15.543Z,7.63
2023-04-17T11:31:42.660Z,6.50
2023-04-17T11:34:09.869Z,6.57
2023-04-17T11:36:36.491Z,6.50
2023-04-17T11:39:04.070Z,7.18
2023-04-17T11:41:40.202Z,6.32
2023-04-17T11:44:10.302Z,7.40
2023-04-17T11:46:36.986Z,7.00
2023-04-17T11:49:07.130Z,6.30
2023-04-17T11:51:33.739Z,7.25
2023-04-17T11:54:00.604Z,7.00
2023-04-17T11:56:30.775Z,7.00
2023-04-17T11:58:58.645Z,7.05
2023-04-17T12:01:26.415Z,7.45
2023-04-17T12:03:57.709Z,6.90
2023-04-17T12:06:24.827Z,7.18
2023-04-17T12:08:55.678Z,6.82
2023-04-17T12:11:22.350Z,6.88
2023-04-17T12:13:48.988Z,6.78
2023-04-17T12:16:15.662Z,6.93
2023-04-17T12:18:42.331Z,7.43
2023-04-17T12:21:08.930Z,6.60
2023-04-17T12:23:35.726Z,8.07
2023-04-17T12:26:02.321Z,7.53
2023-04-17T12:28:29.535Z,8.07
2023-04-17T12:30:56.149Z,8.23
2023-04-17T12:33:22.777Z,7.50
2023-04-17T12:35:49.531Z,8.07
2023-04-17T12:38:16.291Z,8.30
2023-04-17T12:40:43.364Z,7.90
2023-04-17T12:43:11.250Z,7.57
2023-04-17T12:45:38.898Z,7.95
2023-04-17T12:48:07.277Z,8.45
2023-04-17T12:50:36.155Z,8.10
2023-04-17T12:53:02.814Z,7.95
2023-04-17T12:55:29.450Z,8.57
2023-04-17T12:57:56.104Z,8.73
2023-04-17T13:00:22.938Z,8.60
2023-04-17T13:02:49.681Z,8.13
2023-04-17T13:05:16.686Z,8.90
2023-04-17T13:07:43.287Z,8.65
2023-04-17T13:10:10.072Z,9.55
2023-04-17T13:12:36.684Z,9.45
2023-04-17T13:15:03.403Z,9.00
2023-04-17T13:17:31.069Z,9.40
2023-04-17T13:19:57.730Z,9.43
2023-04-17T13:22:24.321Z,9.75
2023-04-17T13:24:50.934Z,8.00
2023-04-17T13:27:17.532Z,8.07
2023-04-17T13:29:44.434Z,8.30
2023-04-17T13:32:11.031Z,7.57
2023-04-17T13:34:37.663Z,8.55
2023-04-17T13:37:04.316Z,9.32
2023-04-17T13:39:31.083Z,8.48
2023-04-17T13:41:58.142Z,7.93
2023-04-17T13:44:25.183Z,9.23
2023-04-17T13:46:52.719Z,9.65
2023-04-17T13:49:19.745Z,8.63
2023-04-17T13:51:46.420Z,9.18
2023-04-17T13:54:13.065Z,9.00
2023-04-17T13:56:39.662Z,9.07
2023-04-17T13:59:06.356Z,9.57
2023-04-17T14:01:32.998Z,8.15
2023-04-17T14:04:02.494Z,8.48
2023-04-17T14:06:29.674Z,9.30
2023-04-17T14:08:56.353Z,9.57
2023-04-17T14:11:24.173Z,9.15
2023-04-17T14:13:51.358Z,8.80
2023-04-17T14:16:18.989Z,8.65
2023-04-17T14:18:49.306Z,8.77
2023-04-17T14:21:16.604Z,8.18
2023-04-17T14:23:43.851Z,8.43
2023-04-17T14:26:10.909Z,7.93
2023-04-17T14:28:37.621Z,9.82
2023-04-17T14:31:04.735Z,9.52
2023-04-17T14:33:31.374Z,8.20
2023-04-17T14:35:58.033Z,7.80
2023-04-17T14:38:25.162Z,8.15
2023-04-17T14:40:51.845Z,8.00
2023-04-17T14:43:18.450Z,8.35
2023-04-17T14:45:45.192Z,8.15
2023-04-17T14:48:11.835Z,8.90
2023-04-17T14:50:38.622Z,8.25
2023-04-17T14:53:05.606Z,8.70
2023-04-17T14:55:32.275Z,7.63
2023-04-17T14:57:59.079Z,7.45
2023-04-17T15:00:25.780Z,7.40
2023-04-17T15:02:52.683Z,7.72
2023-04-17T15:05:20.982Z,7.55
2023-04-17T15:07:47.730Z,7.65
2023-04-17T15:10:14.782Z,8.13
2023-04-17T15:12:41.414Z,7.50
2023-04-17T15:15:08.493Z,8.05
2023-04-17T15:17:37.187Z,7.95
2023-04-17T15:20:07.412Z,7.70
2023-04-17T15:22:34.038Z,7.82
2023-04-17T15:25:00.671Z,8.13
2023-04-17T15:27:27.491Z,7.85
2023-04-17T15:29:54.128Z,8.35
2023-04-17T15:32:21.054Z,7.68
2023-04-17T15:34:48.394Z,6.78
2023-04-17T15:37:14.987Z,7.50
2023-04-17T15:39:41.627Z,8.25
2023-04-17T15:42:09.462Z,8.45
2023-04-17T15:44:37.567Z,8.20
2023-04-17T15:47:05.263Z,7.93
2023-04-17T15:49:31.899Z,7.25
2023-04-17T15:51:59.402Z,7.75
2023-04-17T15:54:26.097Z,7.85
2023-04-17T15:56:52.708Z,7.68
2023-04-17T15:59:19.317Z,7.60
2023-04-17T16:01:46.683Z,6.75
2023-04-17T16:04:13.401Z,7.97
2023-04-17T16:06:40.080Z,8.30
2023-04-17T16:09:06.723Z,8.13
2023-04-17T16:11:33.879Z,10.82
2023-04-17T16:14:00.595Z,9.18
2023-04-17T16:16:29.364Z,11.45
2023-04-17T16:18:56.730Z,8.75
2023-04-17T16:21:23.423Z,9.20
2023-04-17T16:23:50.096Z,8.75
2023-04-17T16:26:16.759Z,9.25
2023-04-17T16:28:44.439Z,7.93
2023-04-17T16:31:11.225Z,8.63
2023-04-17T16:33:39.589Z,8.10
2023-04-17T16:36:06.296Z,7.45
2023-04-17T16:38:32.991Z,7.60
2023-04-17T16:41:01.937Z,8.38
2023-04-17T16:43:30.275Z,7.90
2023-04-17T16:45:58.380Z,7.32
2023-04-17T16:48:26.237Z,7.55
2023-04-17T16:50:52.995Z,8.02
2023-04-17T16:53:21.157Z,7.10
2023-04-17T16:55:48.212Z,8.57
2023-04-17T16:58:14.932Z,7.20
2023-04-17T17:00:41.587Z,7.82
2023-04-17T17:03:08.438Z,7.43
2023-04-17T17:05:35.474Z,7.90
2023-04-17T17:08:02.158Z,8.23
2023-04-17T17:10:28.841Z,7.13
2023-04-17T17:12:55.468Z,8.25
2023-04-17T17:15:22.141Z,7.30
2023-04-17T17:17:48.922Z,7.90
2023-04-17T17:20:15.591Z,7.85
2023-04-17T17:22:42.187Z,7.68
2023-04-17T17:25:09.048Z,7.75
2023-04-17T17:27:35.656Z,8.45
2023-04-17T17:30:02.666Z,17.40
2023-04-17T17:32:29.307Z,8.82
2023-04-17T17:34:55.929Z,8.55
2023-04-17T17:37:22.516Z,7.95
2023-04-17T17:39:49.131Z,7.15
2023-04-17T17:42:16.305Z,8.57
2023-04-17T17:44:42.984Z,8.27
2023-04-17T17:47:09.591Z,7.95
2023-04-17T17:49:36.259Z,7.97
2023-04-17T17:52:03.490Z,7.78
2023-04-17T17:54:30.108Z,8.02
2023-04-17T17:56:57.235Z,7.88
2023-04-17T17:59:23.851Z,8.38
2023-04-17T18:01:50.578Z,7.95
2023-04-17T18:04:17.443Z,8.65
2023-04-17T18:06:44.244Z,7.97
2023-04-17T18:09:10.878Z,8.45
2023-04-17T18:11:37.514Z,8.43
2023-04-17T18:14:04.122Z,8.20
2023-04-17T18:16:32.697Z,18.02
2023-04-17T18:19:04.853Z,9.40
2023-04-17T18:21:31.849Z,10.02
2023-04-17T18:23:58.455Z,16.75
2023-04-17T18:26:25.068Z,17.50
2023-04-17T18:28:51.679Z,8.43
2023-04-17T18:31:18.885Z,9.02
2023-04-17T18:33:45.524Z,8.88
2023-04-17T18:36:12.270Z,8.27
2023-04-17T18:38:38.891Z,9.10
2023-04-17T18:41:05.539Z,8.45
2023-04-17T18:43:32.147Z,8.40
2023-04-17T18:46:02.295Z,7.70
2023-04-17T18:48:28.938Z,7.60
2023-04-17T18:50:55.580Z,9.18
2023-04-17T18:53:22.188Z,8.20
2023-04-17T18:55:48.817Z,7.93
2023-04-17T18:58:15.446Z,11.73
2023-04-17T19:00:42.152Z,9.20
2023-04-17T19:03:10.069Z,8.38
2023-04-17T19:05:36.847Z,8.65
2023-04-17T19:08:03.556Z,7.70
2023-04-17T19:10:30.280Z,8.68
2023-04-17T19:12:56.890Z,8.35
2023-04-17T19:15:24.241Z,8.38
2023-04-17T19:17:50.944Z,9.45
2023-04-17T19:20:17.640Z,8.40
2023-04-17T19:22:44.465Z,8.55
2023-04-17T19:25:11.294Z,8.45
2023-04-17T19:27:37.943Z,8.95
2023-04-17T19:30:06.862Z,8.40
2023-04-17T19:32:33.573Z,9.05
2023-04-17T19:35:00.350Z,8.18
2023-04-17T19:37:26.955Z,8.82
2023-04-17T19:39:56.576Z,8.77
2023-04-17T19:42:23.500Z,7.55
2023-04-17T19:44:50.293Z,8.45
2023-04-17T19:47:16.902Z,7.88
2023-04-17T19:49:43.593Z,8.82
2023-04-17T19:52:11.297Z,8.88
2023-04-17T19:54:38.635Z,9.38
2023-04-17T19:57:05.247Z,8.55
2023-04-17T19:59:31.858Z,8.40
2023-04-17T20:01:58.489Z,9.10
2023-04-17T20:04:25.430Z,8.85
2023-04-17T20:06:52.200Z,9.13
2023-04-17T20:09:19.178Z,8.57
2023-04-17T20:11:45.885Z,9.50
2023-04-17T20:14:14.681Z,9.48
2023-04-17T20:16:42.042Z,8.65
2023-04-17T20:19:08.665Z,9.07
2023-04-17T20:21:35.374Z,9.55
2023-04-17T20:24:02.001Z,9.52
2023-04-17T20:26:28.618Z,10.32
2023-04-17T20:28:55.206Z,9.48
2023-04-17T20:31:21.958Z,8.75
2023-04-17T20:33:48.655Z,9.60
2023-04-17T20:36:15.704Z,9.10
2023-04-17T20:38:42.386Z,8.60
2023-04-17T20:41:09.416Z,9.48
2023-04-17T20:43:36.060Z,9.50
2023-04-17T20:46:02.843Z,9.00
2023-04-17T20:48:29.496Z,9.10
2023-04-17T20:50:56.784Z,9.10
2023-04-17T20:53:23.372Z,8.07
2023-04-17T20:55:50.033Z,8.73
2023-04-17T20:58:16.637Z,9.52
2023-04-17T21:00:54.368Z,8.60
2023-04-17T21:03:29.987Z,8.63
2023-04-17T21:05:56.813Z,8.52
2023-04-17T21:08:23.886Z,8.27
2023-04-17T21:10:50.510Z,8.20
2023-04-17T21:13:17.100Z,9.23
2023-04-17T21:15:43.748Z,9.20
2023-04-17T21:18:10.422Z,8.82
2023-04-17T21:20:38.152Z,9.05
2023-04-17T21:23:04.769Z,8.38
2023-04-17T21:25:31.383Z,8.65
2023-04-17T21:27:57.977Z,8.32
2023-04-17T21:30:27.122Z,9.27
2023-04-17T21:32:54.019Z,8.18
2023-04-17T21:35:20.784Z,8.48
2023-04-17T21:37:47.402Z,8.30
2023-04-17T21:40:14.213Z,9.23
2023-04-17T21:42:40.862Z,8.73
2023-04-17T21:45:07.907Z,8.90
2023-04-17T21:47:34.821Z,9.13
2023-04-17T21:50:01.454Z,8.73
2023-04-17T21:52:28.091Z,9.10
2023-04-17T21:54:54.763Z,9.57
2023-04-17T21:57:21.353Z,9.98
2023-04-17T21:59:47.950Z,9.27
2023-04-17T22:02:14.561Z,10.27
2023-04-17T22:04:41.313Z,11.05
2023-04-17T22:07:08.549Z,11.20
2023-04-17T22:09:35.164Z,10.68
2023-04-17T22:12:13.391Z,11.00
2023-04-17T22:14:40.512Z,11.07
2023-04-17T22:17:07.423Z,11.80
2023-04-17T22:19:34.044Z,10.85
2023-04-17T22:22:00.644Z,11.20
2023-04-17T22:24:27.267Z,10.82
2023-04-17T22:26:53.875Z,11.23
2023-04-17T22:29:20.571Z,11.57
2023-04-17T22:31:49.461Z,11.45
2023-04-17T22:34:16.114Z,11.45
2023-04-17T22:36:42.727Z,11.75
2023-04-17T22:39:09.348Z,12.18
2023-04-17T22:41:35.962Z,11.70
2023-04-17T22:44:03.811Z,11.35
2023-04-17T22:46:30.489Z,11.35
2023-04-17T22:48:58.114Z,11.15
2023-04-17T22:51:29.336Z,11.27
2023-04-17T22:53:56.190Z,11.20
2023-04-17T22:56:23.992Z,11.77
2023-04-17T22:58:51.068Z,11.70
2023-04-17T23:01:17.741Z,11.95
2023-04-17T23:03:44.386Z,10.77
2023-04-17T23:06:11.249Z,10.88
2023-04-17T23:08:37.853Z,11.07
2023-04-17T23:11:05.842Z,11.30
2023-04-17T23:13:32.478Z,11.63
2023-04-17T23:15:59.139Z,10.90
2023-04-17T23:18:25.751Z,10.55
2023-04-17T23:20:52.393Z,11.77
2023-04-17T23:23:18.977Z,11.30
2023-04-17T23:25:45.602Z,11.05
2023-04-17T23:28:12.205Z,11.65
2023-04-17T23:30:38.828Z,11.68
2023-04-17T23:33:05.501Z,11.77
2023-04-17T23:35:32.131Z,10.63
2023-04-17T23:37:58.716Z,11.73
2023-04-17T23:40:26.296Z,11.38
2023-04-17T23:42:53.019Z,10.80
2023-04-17T23:45:19.689Z,11.20
2023-04-17T23:47:46.421Z,12.20
2023-04-17T23:50:13.084Z,10.80
2023-04-17T23:52:39.685Z,11.00
2023-04-17T23:55:07.830Z,12.10
2023-04-17T23:57:35.472Z,12.13
